Terminal Aerodrome Forecast
Issued by NWS Grand Forks, ND

Home | Current Version | Previous Version | Graphics & Text | Print | Product List | Glossary On
Versions: 1 2 3 4 5 6 7 8 9 10 11 12 13
000
FTUS43 KFGF 151732
TAFGFK
TAF
KGFK 151732Z 1518/1618 27010KT P6SM BKN070
     FM152100 30012KT P6SM SCT110
     FM160100 VRB06KT P6SM FEW250
     FM161400 19010KT P6SM FEW250
     FM161700 21014G22KT P6SM FEW250=

USA.gov is the U.S. government's official web portal to all federal, state and local government web resources and services.